sensor_id;sensor_type;location;lat;lon;timestamp;temperature;humidity
49503;DHT22;35409;48.776;9.204;2022-12-07T00:02:16;3.20;99.90
49503;DHT22;35409;48.776;9.204;2022-12-07T00:04:41;3.20;99.90
49503;DHT22;35409;48.776;9.204;2022-12-07T00:07:07;3.20;99.90
49503;DHT22;35409;48.776;9.204;2022-12-07T00:09:32;3.20;99.90
49503;DHT22;35409;48.776;9.204;2022-12-07T00:11:58;3.20;99.90
49503;DHT22;35409;48.776;9.204;2022-12-07T00:14:24;3.20;99.90
49503;DHT22;35409;48.776;9.204;2022-12-07T00:16:51;3.20;99.90
49503;DHT22;35409;48.776;9.204;2022-12-07T00:19:17;3.20;99.90
49503;DHT22;35409;48.776;9.204;2022-12-07T00:21:43;3.20;99.90
49503;DHT22;35409;48.776;9.204;2022-12-07T00:24:10;3.20;99.90
49503;DHT22;35409;48.776;9.204;2022-12-07T00:26:37;3.30;99.90
49503;DHT22;35409;48.776;9.204;2022-12-07T00:29:06;3.30;99.90
49503;DHT22;35409;48.776;9.204;2022-12-07T00:31:35;3.40;99.90
49503;DHT22;35409;48.776;9.204;2022-12-07T00:34:04;3.40;99.90
49503;DHT22;35409;48.776;9.204;2022-12-07T00:36:30;3.30;99.90
49503;DHT22;35409;48.776;9.204;2022-12-07T00:38:57;3.30;99.90
49503;DHT22;35409;48.776;9.204;2022-12-07T00:41:25;3.30;99.90
49503;DHT22;35409;48.776;9.204;2022-12-07T00:43:51;3.30;99.90
49503;DHT22;35409;48.776;9.204;2022-12-07T00:46:18;3.40;99.90
49503;DHT22;35409;48.776;9.204;2022-12-07T00:48:44;3.40;99.90
49503;DHT22;35409;48.776;9.204;2022-12-07T00:51:11;3.40;99.90
49503;DHT22;35409;48.776;9.204;2022-12-07T00:53:37;3.30;99.90
49503;DHT22;35409;48.776;9.204;2022-12-07T00:56:07;3.30;99.90
49503;DHT22;35409;48.776;9.204;2022-12-07T00:58:33;3.30;99.90
49503;DHT22;35409;48.776;9.204;2022-12-07T01:01:03;3.30;99.90
49503;DHT22;35409;48.776;9.204;2022-12-07T01:03:29;3.30;99.90
49503;DHT22;35409;48.776;9.204;2022-12-07T01:05:55;3.30;99.90
49503;DHT22;35409;48.776;9.204;2022-12-07T01:08:22;3.20;99.90
49503;DHT22;35409;48.776;9.204;2022-12-07T01:10:49;3.20;99.90
49503;DHT22;35409;48.776;9.204;2022-12-07T01:13:15;3.10;99.90
49503;DHT22;35409;48.776;9.204;2022-12-07T01:15:42;3.10;99.90
49503;DHT22;35409;48.776;9.204;2022-12-07T01:18:08;3.10;99.90
49503;DHT22;35409;48.776;9.204;2022-12-07T01:20:34;3.10;99.90
49503;DHT22;35409;48.776;9.204;2022-12-07T01:23:00;3.00;99.90
49503;DHT22;35409;48.776;9.204;2022-12-07T01:25:26;3.00;99.90
49503;DHT22;35409;48.776;9.204;2022-12-07T01:27:51;3.00;99.90
49503;DHT22;35409;48.776;9.204;2022-12-07T01:30:17;2.90;99.90
49503;DHT22;35409;48.776;9.204;2022-12-07T01:32:42;2.90;99.90
49503;DHT22;35409;48.776;9.204;2022-12-07T01:35:08;2.90;99.90
49503;DHT22;35409;48.776;9.204;2022-12-07T01:37:38;2.90;99.90
49503;DHT22;35409;48.776;9.204;2022-12-07T01:40:06;2.90;99.90
49503;DHT22;35409;48.776;9.204;2022-12-07T01:42:32;2.90;99.90
49503;DHT22;35409;48.776;9.204;2022-12-07T01:45:37;2.90;99.90
49503;DHT22;35409;48.776;9.204;2022-12-07T01:48:04;2.90;99.90
49503;DHT22;35409;48.776;9.204;2022-12-07T01:50:30;2.90;99.90
49503;DHT22;35409;48.776;9.204;2022-12-07T01:52:59;3.00;99.90
49503;DHT22;35409;48.776;9.204;2022-12-07T01:55:26;3.00;99.90
49503;DHT22;35409;48.776;9.204;2022-12-07T01:57:54;2.90;99.90
49503;DHT22;35409;48.776;9.204;2022-12-07T02:00:20;2.90;99.90
49503;DHT22;35409;48.776;9.204;2022-12-07T02:03:00;3.00;99.90
49503;DHT22;35409;48.776;9.204;2022-12-07T02:05:29;2.90;99.90
49503;DHT22;35409;48.776;9.204;2022-12-07T02:07:56;2.90;99.90
49503;DHT22;35409;48.776;9.204;2022-12-07T02:10:27;2.90;99.90
49503;DHT22;35409;48.776;9.204;2022-12-07T02:12:59;2.90;99.90
49503;DHT22;35409;48.776;9.204;2022-12-07T02:18:30;2.80;99.90
49503;DHT22;35409;48.776;9.204;2022-12-07T02:32:16;2.80;99.90
49503;DHT22;35409;48.776;9.204;2022-12-07T02:35:35;2.80;99.90
49503;DHT22;35409;48.776;9.204;2022-12-07T02:40:35;2.80;99.90
49503;DHT22;35409;48.776;9.204;2022-12-07T02:45:42;2.80;99.90
49503;DHT22;35409;48.776;9.204;2022-12-07T02:48:10;2.80;99.90
49503;DHT22;35409;48.776;9.204;2022-12-07T02:50:37;2.80;99.90
49503;DHT22;35409;48.776;9.204;2022-12-07T02:53:02;2.80;99.90
49503;DHT22;35409;48.776;9.204;2022-12-07T02:55:34;2.90;99.90
49503;DHT22;35409;48.776;9.204;2022-12-07T03:01:42;2.80;99.90
49503;DHT22;35409;48.776;9.204;2022-12-07T03:07:02;2.80;99.90
49503;DHT22;35409;48.776;9.204;2022-12-07T03:09:45;2.80;99.90
49503;DHT22;35409;48.776;9.204;2022-12-07T03:12:19;2.80;99.90
49503;DHT22;35409;48.776;9.204;2022-12-07T03:14:59;2.80;99.90
49503;DHT22;35409;48.776;9.204;2022-12-07T03:17:28;2.80;99.90
49503;DHT22;35409;48.776;9.204;2022-12-07T03:19:58;2.80;99.90
49503;DHT22;35409;48.776;9.204;2022-12-07T03:22:30;2.80;99.90
49503;DHT22;35409;48.776;9.204;2022-12-07T03:25:04;2.80;99.90
49503;DHT22;35409;48.776;9.204;2022-12-07T03:27:34;2.80;99.90
49503;DHT22;35409;48.776;9.204;2022-12-07T03:33:01;2.80;99.90
49503;DHT22;35409;48.776;9.204;2022-12-07T03:35:37;2.80;99.90
49503;DHT22;35409;48.776;9.204;2022-12-07T03:38:23;2.80;99.90
49503;DHT22;35409;48.776;9.204;2022-12-07T03:40:59;2.80;99.90
49503;DHT22;35409;48.776;9.204;2022-12-07T03:43:28;2.80;99.90
49503;DHT22;35409;48.776;9.204;2022-12-07T03:49:16;2.80;99.90
49503;DHT22;35409;48.776;9.204;2022-12-07T03:51:51;2.80;99.90
49503;DHT22;35409;48.776;9.204;2022-12-07T03:54:28;2.80;99.90
49503;DHT22;35409;48.776;9.204;2022-12-07T03:56:55;2.80;99.90
49503;DHT22;35409;48.776;9.204;2022-12-07T03:59:22;2.80;99.90
49503;DHT22;35409;48.776;9.204;2022-12-07T04:01:57;2.80;99.90
49503;DHT22;35409;48.776;9.204;2022-12-07T04:04:27;2.80;99.90
49503;DHT22;35409;48.776;9.204;2022-12-07T04:06:53;2.80;99.90
49503;DHT22;35409;48.776;9.204;2022-12-07T04:09:19;2.80;99.90
49503;DHT22;35409;48.776;9.204;2022-12-07T04:11:45;2.80;99.90
49503;DHT22;35409;48.776;9.204;2022-12-07T04:14:10;2.70;99.90
49503;DHT22;35409;48.776;9.204;2022-12-07T04:16:49;2.70;99.90
49503;DHT22;35409;48.776;9.204;2022-12-07T04:19:15;2.60;99.90
49503;DHT22;35409;48.776;9.204;2022-12-07T04:21:41;2.60;99.90
49503;DHT22;35409;48.776;9.204;2022-12-07T04:24:07;2.60;99.90
49503;DHT22;35409;48.776;9.204;2022-12-07T04:26:33;2.50;99.90
49503;DHT22;35409;48.776;9.204;2022-12-07T04:28:58;2.50;99.90
49503;DHT22;35409;48.776;9.204;2022-12-07T04:31:24;2.40;99.90
49503;DHT22;35409;48.776;9.204;2022-12-07T04:33:50;2.40;99.90
49503;DHT22;35409;48.776;9.204;2022-12-07T04:36:16;2.40;99.90
49503;DHT22;35409;48.776;9.204;2022-12-07T04:38:42;2.40;99.90
49503;DHT22;35409;48.776;9.204;2022-12-07T04:41:08;2.40;99.90
49503;DHT22;35409;48.776;9.204;2022-12-07T04:43:34;2.40;99.90
49503;DHT22;35409;48.776;9.204;2022-12-07T04:46:00;2.40;99.90
49503;DHT22;35409;48.776;9.204;2022-12-07T04:48:26;2.40;99.90
49503;DHT22;35409;48.776;9.204;2022-12-07T04:50:52;2.40;99.90
49503;DHT22;35409;48.776;9.204;2022-12-07T04:53:18;2.50;99.90
49503;DHT22;35409;48.776;9.204;2022-12-07T04:55:44;2.50;99.90
49503;DHT22;35409;48.776;9.204;2022-12-07T04:58:10;2.60;99.90
49503;DHT22;35409;48.776;9.204;2022-12-07T05:00:36;2.60;99.90
49503;DHT22;35409;48.776;9.204;2022-12-07T05:03:01;2.60;99.90
49503;DHT22;35409;48.776;9.204;2022-12-07T05:05:27;2.50;99.90
49503;DHT22;35409;48.776;9.204;2022-12-07T05:07:53;2.50;99.90
49503;DHT22;35409;48.776;9.204;2022-12-07T05:10:19;2.60;99.90
49503;DHT22;35409;48.776;9.204;2022-12-07T05:12:44;2.60;99.90
49503;DHT22;35409;48.776;9.204;2022-12-07T05:15:11;2.70;99.90
49503;DHT22;35409;48.776;9.204;2022-12-07T05:17:37;2.70;99.90
49503;DHT22;35409;48.776;9.204;2022-12-07T05:20:03;2.70;99.90
49503;DHT22;35409;48.776;9.204;2022-12-07T05:22:29;2.60;99.90
49503;DHT22;35409;48.776;9.204;2022-12-07T05:24:55;2.60;99.90
49503;DHT22;35409;48.776;9.204;2022-12-07T05:27:21;2.60;99.90
49503;DHT22;35409;48.776;9.204;2022-12-07T05:29:47;2.50;99.90
49503;DHT22;35409;48.776;9.204;2022-12-07T05:32:12;2.40;99.90
49503;DHT22;35409;48.776;9.204;2022-12-07T05:34:38;2.40;99.90
49503;DHT22;35409;48.776;9.204;2022-12-07T05:37:04;2.50;99.90
49503;DHT22;35409;48.776;9.204;2022-12-07T05:39:29;2.40;99.90
49503;DHT22;35409;48.776;9.204;2022-12-07T05:41:55;2.20;99.90
49503;DHT22;35409;48.776;9.204;2022-12-07T05:44:39;2.30;99.90
49503;DHT22;35409;48.776;9.204;2022-12-07T05:47:05;2.20;99.90
49503;DHT22;35409;48.776;9.204;2022-12-07T05:49:31;2.20;99.90
49503;DHT22;35409;48.776;9.204;2022-12-07T05:51:58;2.20;99.90
49503;DHT22;35409;48.776;9.204;2022-12-07T05:54:23;2.00;99.90
49503;DHT22;35409;48.776;9.204;2022-12-07T05:56:49;1.90;99.90
49503;DHT22;35409;48.776;9.204;2022-12-07T05:59:15;1.90;99.90
49503;DHT22;35409;48.776;9.204;2022-12-07T06:01:51;1.80;99.90
49503;DHT22;35409;48.776;9.204;2022-12-07T06:04:17;1.70;99.90
49503;DHT22;35409;48.776;9.204;2022-12-07T06:06:43;1.60;99.90
49503;DHT22;35409;48.776;9.204;2022-12-07T06:09:09;1.60;99.90
49503;DHT22;35409;48.776;9.204;2022-12-07T06:11:35;1.60;99.90
49503;DHT22;35409;48.776;9.204;2022-12-07T06:14:19;1.50;99.90
49503;DHT22;35409;48.776;9.204;2022-12-07T06:16:45;1.50;99.90
49503;DHT22;35409;48.776;9.204;2022-12-07T06:19:10;1.50;99.90
49503;DHT22;35409;48.776;9.204;2022-12-07T06:21:36;1.50;99.90
49503;DHT22;35409;48.776;9.204;2022-12-07T06:24:02;1.50;99.90
49503;DHT22;35409;48.776;9.204;2022-12-07T06:26:28;1.50;99.90
49503;DHT22;35409;48.776;9.204;2022-12-07T06:28:53;1.50;99.90
49503;DHT22;35409;48.776;9.204;2022-12-07T06:31:19;1.50;99.90
49503;DHT22;35409;48.776;9.204;2022-12-07T06:33:45;1.60;99.90
49503;DHT22;35409;48.776;9.204;2022-12-07T06:36:10;1.60;99.90
49503;DHT22;35409;48.776;9.204;2022-12-07T06:38:37;1.70;99.90
49503;DHT22;35409;48.776;9.204;2022-12-07T06:41:02;1.70;99.90
49503;DHT22;35409;48.776;9.204;2022-12-07T06:43:28;1.70;99.90
49503;DHT22;35409;48.776;9.204;2022-12-07T06:45:54;1.70;99.90
49503;DHT22;35409;48.776;9.204;2022-12-07T06:48:20;1.80;99.90
49503;DHT22;35409;48.776;9.204;2022-12-07T06:50:45;1.80;99.90
49503;DHT22;35409;48.776;9.204;2022-12-07T06:53:11;1.80;99.90
49503;DHT22;35409;48.776;9.204;2022-12-07T06:55:37;1.80;99.90
49503;DHT22;35409;48.776;9.204;2022-12-07T06:58:02;1.80;99.90
49503;DHT22;35409;48.776;9.204;2022-12-07T07:00:29;1.80;99.90
49503;DHT22;35409;48.776;9.204;2022-12-07T07:02:55;1.80;99.90
49503;DHT22;35409;48.776;9.204;2022-12-07T07:05:21;1.80;99.90
49503;DHT22;35409;48.776;9.204;2022-12-07T07:07:48;1.90;99.90
49503;DHT22;35409;48.776;9.204;2022-12-07T07:10:14;1.90;99.90
49503;DHT22;35409;48.776;9.204;2022-12-07T07:12:39;2.00;99.90
49503;DHT22;35409;48.776;9.204;2022-12-07T07:15:06;2.10;99.90
49503;DHT22;35409;48.776;9.204;2022-12-07T07:17:32;2.20;99.90
49503;DHT22;35409;48.776;9.204;2022-12-07T07:19:57;2.20;99.90
49503;DHT22;35409;48.776;9.204;2022-12-07T07:22:23;2.30;99.90
49503;DHT22;35409;48.776;9.204;2022-12-07T07:24:49;2.30;99.90
49503;DHT22;35409;48.776;9.204;2022-12-07T07:27:14;2.30;99.90
49503;DHT22;35409;48.776;9.204;2022-12-07T07:29:40;2.40;99.90
49503;DHT22;35409;48.776;9.204;2022-12-07T07:32:05;2.40;99.90
49503;DHT22;35409;48.776;9.204;2022-12-07T07:34:33;2.50;99.90
49503;DHT22;35409;48.776;9.204;2022-12-07T07:36:59;2.60;99.90
49503;DHT22;35409;48.776;9.204;2022-12-07T07:39:25;2.60;99.90
49503;DHT22;35409;48.776;9.204;2022-12-07T07:41:51;2.60;99.90
49503;DHT22;35409;48.776;9.204;2022-12-07T07:44:16;2.60;99.90
49503;DHT22;35409;48.776;9.204;2022-12-07T07:46:42;2.60;99.90
49503;DHT22;35409;48.776;9.204;2022-12-07T07:49:09;2.70;99.90
49503;DHT22;35409;48.776;9.204;2022-12-07T07:51:35;2.70;99.90
49503;DHT22;35409;48.776;9.204;2022-12-07T07:54:01;2.80;99.90
49503;DHT22;35409;48.776;9.204;2022-12-07T07:56:27;2.80;99.90
49503;DHT22;35409;48.776;9.204;2022-12-07T07:58:53;2.80;99.90
49503;DHT22;35409;48.776;9.204;2022-12-07T08:01:18;2.80;99.90
49503;DHT22;35409;48.776;9.204;2022-12-07T08:03:46;2.90;99.90
49503;DHT22;35409;48.776;9.204;2022-12-07T08:06:12;2.90;99.90
49503;DHT22;35409;48.776;9.204;2022-12-07T08:08:37;3.00;99.90
49503;DHT22;35409;48.776;9.204;2022-12-07T08:11:07;3.00;99.90
49503;DHT22;35409;48.776;9.204;2022-12-07T08:13:33;3.10;99.90
49503;DHT22;35409;48.776;9.204;2022-12-07T08:16:04;3.10;99.90
49503;DHT22;35409;48.776;9.204;2022-12-07T08:18:29;3.10;99.90
49503;DHT22;35409;48.776;9.204;2022-12-07T08:21:01;3.20;99.90
49503;DHT22;35409;48.776;9.204;2022-12-07T08:23:27;3.20;99.90
49503;DHT22;35409;48.776;9.204;2022-12-07T08:25:53;3.20;99.90
49503;DHT22;35409;48.776;9.204;2022-12-07T08:28:18;3.30;99.90
49503;DHT22;35409;48.776;9.204;2022-12-07T08:30:44;3.30;99.90
49503;DHT22;35409;48.776;9.204;2022-12-07T08:33:10;3.40;99.90
49503;DHT22;35409;48.776;9.204;2022-12-07T08:35:36;3.40;99.90
49503;DHT22;35409;48.776;9.204;2022-12-07T08:38:02;3.40;99.90
49503;DHT22;35409;48.776;9.204;2022-12-07T08:40:29;3.50;99.90
49503;DHT22;35409;48.776;9.204;2022-12-07T08:42:54;3.60;99.90
49503;DHT22;35409;48.776;9.204;2022-12-07T08:45:21;3.60;99.90
49503;DHT22;35409;48.776;9.204;2022-12-07T08:48:04;3.60;99.90
49503;DHT22;35409;48.776;9.204;2022-12-07T08:50:32;3.70;99.90
49503;DHT22;35409;48.776;9.204;2022-12-07T08:52:59;3.80;99.90
49503;DHT22;35409;48.776;9.204;2022-12-07T08:55:25;3.80;99.90
49503;DHT22;35409;48.776;9.204;2022-12-07T08:57:52;3.90;99.90
49503;DHT22;35409;48.776;9.204;2022-12-07T09:00:18;3.90;99.90
49503;DHT22;35409;48.776;9.204;2022-12-07T09:02:44;4.00;99.90
49503;DHT22;35409;48.776;9.204;2022-12-07T09:05:11;4.00;99.90
49503;DHT22;35409;48.776;9.204;2022-12-07T09:07:37;4.10;99.90
49503;DHT22;35409;48.776;9.204;2022-12-07T09:10:06;4.10;99.90
49503;DHT22;35409;48.776;9.204;2022-12-07T09:12:32;4.20;99.90
49503;DHT22;35409;48.776;9.204;2022-12-07T09:14:57;4.20;99.90
49503;DHT22;35409;48.776;9.204;2022-12-07T09:17:23;4.30;99.90
49503;DHT22;35409;48.776;9.204;2022-12-07T09:19:49;4.30;99.90
49503;DHT22;35409;48.776;9.204;2022-12-07T09:22:14;4.40;99.90
49503;DHT22;35409;48.776;9.204;2022-12-07T09:24:40;4.50;99.90
49503;DHT22;35409;48.776;9.204;2022-12-07T09:27:05;4.60;99.90
49503;DHT22;35409;48.776;9.204;2022-12-07T09:29:31;4.60;99.90
49503;DHT22;35409;48.776;9.204;2022-12-07T09:31:57;4.60;99.90
49503;DHT22;35409;48.776;9.204;2022-12-07T09:34:22;4.70;99.90
49503;DHT22;35409;48.776;9.204;2022-12-07T09:36:48;4.70;99.90
49503;DHT22;35409;48.776;9.204;2022-12-07T09:39:14;4.80;99.90
49503;DHT22;35409;48.776;9.204;2022-12-07T09:41:44;4.80;99.90
49503;DHT22;35409;48.776;9.204;2022-12-07T09:44:12;4.90;99.90
49503;DHT22;35409;48.776;9.204;2022-12-07T09:46:40;4.90;99.90
49503;DHT22;35409;48.776;9.204;2022-12-07T09:49:14;5.00;99.90
49503;DHT22;35409;48.776;9.204;2022-12-07T09:51:42;5.00;99.90
49503;DHT22;35409;48.776;9.204;2022-12-07T09:54:09;5.10;99.90
49503;DHT22;35409;48.776;9.204;2022-12-07T09:56:37;5.20;99.90
49503;DHT22;35409;48.776;9.204;2022-12-07T09:59:03;5.20;99.90
49503;DHT22;35409;48.776;9.204;2022-12-07T10:01:33;5.30;99.90
49503;DHT22;35409;48.776;9.204;2022-12-07T10:04:14;5.40;99.90
49503;DHT22;35409;48.776;9.204;2022-12-07T10:06:42;5.50;99.90
49503;DHT22;35409;48.776;9.204;2022-12-07T10:09:19;5.60;99.90
49503;DHT22;35409;48.776;9.204;2022-12-07T10:12:00;5.70;99.90
49503;DHT22;35409;48.776;9.204;2022-12-07T10:14:28;5.70;99.90
49503;DHT22;35409;48.776;9.204;2022-12-07T10:16:55;5.70;99.90
49503;DHT22;35409;48.776;9.204;2022-12-07T10:19:26;5.60;99.90
49503;DHT22;35409;48.776;9.204;2022-12-07T10:22:15;5.60;99.90
49503;DHT22;35409;48.776;9.204;2022-12-07T10:24:43;5.70;99.90
49503;DHT22;35409;48.776;9.204;2022-12-07T10:27:26;5.70;99.90
49503;DHT22;35409;48.776;9.204;2022-12-07T10:29:54;5.80;99.90
49503;DHT22;35409;48.776;9.204;2022-12-07T10:34:45;5.90;99.90
49503;DHT22;35409;48.776;9.204;2022-12-07T10:39:54;5.90;99.90
49503;DHT22;35409;48.776;9.204;2022-12-07T10:42:26;5.90;99.90
49503;DHT22;35409;48.776;9.204;2022-12-07T10:51:38;5.70;99.90
49503;DHT22;35409;48.776;9.204;2022-12-07T11:04:36;5.50;99.90
49503;DHT22;35409;48.776;9.204;2022-12-07T11:10:01;5.40;99.90
49503;DHT22;35409;48.776;9.204;2022-12-07T11:24:10;5.20;99.90
49503;DHT22;35409;48.776;9.204;2022-12-07T11:32:50;5.20;99.90
49503;DHT22;35409;48.776;9.204;2022-12-07T11:38:19;5.20;99.90
49503;DHT22;35409;48.776;9.204;2022-12-07T11:40:50;5.10;99.90
49503;DHT22;35409;48.776;9.204;2022-12-07T11:45:51;5.10;99.90
49503;DHT22;35409;48.776;9.204;2022-12-07T11:48:29;5.10;99.90
49503;DHT22;35409;48.776;9.204;2022-12-07T11:50:59;5.10;99.90
49503;DHT22;35409;48.776;9.204;2022-12-07T11:53:31;5.10;99.90
49503;DHT22;35409;48.776;9.204;2022-12-07T11:56:16;5.10;99.90
49503;DHT22;35409;48.776;9.204;2022-12-07T12:01:35;5.20;99.90
49503;DHT22;35409;48.776;9.204;2022-12-07T12:04:23;5.20;99.90
49503;DHT22;35409;48.776;9.204;2022-12-07T12:06:51;5.10;99.90
49503;DHT22;35409;48.776;9.204;2022-12-07T12:09:20;5.00;99.90
49503;DHT22;35409;48.776;9.204;2022-12-07T12:20:43;4.90;99.90
49503;DHT22;35409;48.776;9.204;2022-12-07T12:26:20;4.90;99.90
49503;DHT22;35409;48.776;9.204;2022-12-07T12:28:54;4.90;99.90
49503;DHT22;35409;48.776;9.204;2022-12-07T12:36:23;4.80;99.90
49503;DHT22;35409;48.776;9.204;2022-12-07T12:49:42;5.00;99.90
49503;DHT22;35409;48.776;9.204;2022-12-07T12:54:58;5.00;99.90
49503;DHT22;35409;48.776;9.204;2022-12-07T12:57:30;4.90;99.90
49503;DHT22;35409;48.776;9.204;2022-12-07T12:59:58;4.90;99.90
49503;DHT22;35409;48.776;9.204;2022-12-07T13:02:37;4.90;99.90
49503;DHT22;35409;48.776;9.204;2022-12-07T13:29:10;5.00;99.90
49503;DHT22;35409;48.776;9.204;2022-12-07T13:31:46;5.00;99.90
49503;DHT22;35409;48.776;9.204;2022-12-07T13:34:33;4.90;99.90
49503;DHT22;35409;48.776;9.204;2022-12-07T13:37:01;4.90;99.90
49503;DHT22;35409;48.776;9.204;2022-12-07T13:39:27;4.90;99.90
49503;DHT22;35409;48.776;9.204;2022-12-07T13:41:55;4.80;99.90
49503;DHT22;35409;48.776;9.204;2022-12-07T13:44:27;4.80;99.90
49503;DHT22;35409;48.776;9.204;2022-12-07T13:47:03;4.80;99.90
49503;DHT22;35409;48.776;9.204;2022-12-07T13:49:36;4.70;99.90
49503;DHT22;35409;48.776;9.204;2022-12-07T13:52:15;4.80;99.90
49503;DHT22;35409;48.776;9.204;2022-12-07T13:57:34;4.70;99.90
49503;DHT22;35409;48.776;9.204;2022-12-07T14:00:05;4.70;99.90
49503;DHT22;35409;48.776;9.204;2022-12-07T14:02:34;4.80;99.90
49503;DHT22;35409;48.776;9.204;2022-12-07T14:05:14;4.70;99.90
49503;DHT22;35409;48.776;9.204;2022-12-07T14:07:55;4.60;99.90
49503;DHT22;35409;48.776;9.204;2022-12-07T14:10:25;4.60;99.90
49503;DHT22;35409;48.776;9.204;2022-12-07T14:12:51;4.60;99.90
49503;DHT22;35409;48.776;9.204;2022-12-07T14:15:29;4.70;99.90
49503;DHT22;35409;48.776;9.204;2022-12-07T14:17:57;4.80;99.90
49503;DHT22;35409;48.776;9.204;2022-12-07T14:20:40;4.80;99.90
49503;DHT22;35409;48.776;9.204;2022-12-07T14:23:24;4.80;99.90
49503;DHT22;35409;48.776;9.204;2022-12-07T14:25:52;4.80;99.90
49503;DHT22;35409;48.776;9.204;2022-12-07T14:28:36;4.80;99.90
49503;DHT22;35409;48.776;9.204;2022-12-07T14:31:02;4.80;99.90
49503;DHT22;35409;48.776;9.204;2022-12-07T14:33:29;4.80;99.90
49503;DHT22;35409;48.776;9.204;2022-12-07T14:35:55;4.70;99.90
49503;DHT22;35409;48.776;9.204;2022-12-07T14:38:24;4.60;99.90
49503;DHT22;35409;48.776;9.204;2022-12-07T14:40:51;4.60;99.90
49503;DHT22;35409;48.776;9.204;2022-12-07T14:43:17;4.60;99.90
49503;DHT22;35409;48.776;9.204;2022-12-07T14:45:44;4.60;99.90
49503;DHT22;35409;48.776;9.204;2022-12-07T14:48:14;4.50;99.90
49503;DHT22;35409;48.776;9.204;2022-12-07T14:50:52;4.50;99.90
49503;DHT22;35409;48.776;9.204;2022-12-07T14:53:21;4.50;99.90
49503;DHT22;35409;48.776;9.204;2022-12-07T14:55:50;4.50;99.90
49503;DHT22;35409;48.776;9.204;2022-12-07T14:58:16;4.40;99.90
49503;DHT22;35409;48.776;9.204;2022-12-07T15:00:43;4.40;99.90
49503;DHT22;35409;48.776;9.204;2022-12-07T15:03:09;4.30;99.90
49503;DHT22;35409;48.776;9.204;2022-12-07T15:05:36;4.30;99.90
49503;DHT22;35409;48.776;9.204;2022-12-07T15:08:02;4.30;99.90
49503;DHT22;35409;48.776;9.204;2022-12-07T15:10:30;4.30;99.90
49503;DHT22;35409;48.776;9.204;2022-12-07T15:13:02;4.30;99.90
49503;DHT22;35409;48.776;9.204;2022-12-07T15:15:50;4.30;99.90
49503;DHT22;35409;48.776;9.204;2022-12-07T15:18:17;4.20;99.90
49503;DHT22;35409;48.776;9.204;2022-12-07T15:20:43;4.20;99.90
49503;DHT22;35409;48.776;9.204;2022-12-07T15:23:10;4.20;99.90
49503;DHT22;35409;48.776;9.204;2022-12-07T15:25:36;4.20;99.90
49503;DHT22;35409;48.776;9.204;2022-12-07T15:28:02;4.20;99.90
49503;DHT22;35409;48.776;9.204;2022-12-07T15:30:27;4.20;99.90
49503;DHT22;35409;48.776;9.204;2022-12-07T15:32:53;4.20;99.90
49503;DHT22;35409;48.776;9.204;2022-12-07T15:35:20;4.20;99.90
49503;DHT22;35409;48.776;9.204;2022-12-07T15:37:46;4.10;99.90
49503;DHT22;35409;48.776;9.204;2022-12-07T15:40:12;4.00;99.90
49503;DHT22;35409;48.776;9.204;2022-12-07T15:42:38;4.10;99.90
49503;DHT22;35409;48.776;9.204;2022-12-07T15:45:05;4.10;99.90
49503;DHT22;35409;48.776;9.204;2022-12-07T15:47:37;4.00;99.90
49503;DHT22;35409;48.776;9.204;2022-12-07T15:50:04;4.00;99.90
49503;DHT22;35409;48.776;9.204;2022-12-07T15:52:31;4.00;99.90
49503;DHT22;35409;48.776;9.204;2022-12-07T15:54:57;3.90;99.90
49503;DHT22;35409;48.776;9.204;2022-12-07T15:57:22;3.90;99.90
49503;DHT22;35409;48.776;9.204;2022-12-07T15:59:48;3.90;99.90
49503;DHT22;35409;48.776;9.204;2022-12-07T16:02:13;3.90;99.90
49503;DHT22;35409;48.776;9.204;2022-12-07T16:04:39;3.80;99.90
49503;DHT22;35409;48.776;9.204;2022-12-07T16:07:05;3.80;99.90
49503;DHT22;35409;48.776;9.204;2022-12-07T16:09:31;3.70;99.90
49503;DHT22;35409;48.776;9.204;2022-12-07T16:11:56;3.70;99.90
49503;DHT22;35409;48.776;9.204;2022-12-07T16:14:22;3.70;99.90
49503;DHT22;35409;48.776;9.204;2022-12-07T16:16:48;3.60;99.90
49503;DHT22;35409;48.776;9.204;2022-12-07T16:19:14;3.60;99.90
49503;DHT22;35409;48.776;9.204;2022-12-07T16:21:39;3.50;99.90
49503;DHT22;35409;48.776;9.204;2022-12-07T16:24:06;3.50;99.90
49503;DHT22;35409;48.776;9.204;2022-12-07T16:26:32;3.40;99.90
49503;DHT22;35409;48.776;9.204;2022-12-07T16:28:58;3.40;99.90
49503;DHT22;35409;48.776;9.204;2022-12-07T16:31:25;3.30;99.90
49503;DHT22;35409;48.776;9.204;2022-12-07T16:33:56;3.30;99.90
49503;DHT22;35409;48.776;9.204;2022-12-07T16:36:22;3.40;99.90
49503;DHT22;35409;48.776;9.204;2022-12-07T16:38:50;3.30;99.90
49503;DHT22;35409;48.776;9.204;2022-12-07T16:41:16;3.30;99.90
49503;DHT22;35409;48.776;9.204;2022-12-07T16:43:41;3.30;99.90
49503;DHT22;35409;48.776;9.204;2022-12-07T16:46:07;3.20;99.90
49503;DHT22;35409;48.776;9.204;2022-12-07T16:48:38;3.10;99.90
49503;DHT22;35409;48.776;9.204;2022-12-07T16:51:06;3.00;99.90
49503;DHT22;35409;48.776;9.204;2022-12-07T16:53:32;2.90;99.90
49503;DHT22;35409;48.776;9.204;2022-12-07T16:55:58;2.80;99.90
49503;DHT22;35409;48.776;9.204;2022-12-07T16:58:23;2.70;99.90
49503;DHT22;35409;48.776;9.204;2022-12-07T17:00:49;2.60;99.90
49503;DHT22;35409;48.776;9.204;2022-12-07T17:03:14;2.60;99.90
49503;DHT22;35409;48.776;9.204;2022-12-07T17:05:43;2.40;99.90
49503;DHT22;35409;48.776;9.204;2022-12-07T17:08:10;2.40;99.90
49503;DHT22;35409;48.776;9.204;2022-12-07T17:10:38;2.30;99.90
49503;DHT22;35409;48.776;9.204;2022-12-07T17:13:05;2.20;99.90
49503;DHT22;35409;48.776;9.204;2022-12-07T17:15:58;2.20;99.90
49503;DHT22;35409;48.776;9.204;2022-12-07T17:18:27;2.20;99.90
49503;DHT22;35409;48.776;9.204;2022-12-07T17:20:52;2.20;99.90
49503;DHT22;35409;48.776;9.204;2022-12-07T17:23:18;2.20;99.90
49503;DHT22;35409;48.776;9.204;2022-12-07T17:25:44;2.30;99.90
49503;DHT22;35409;48.776;9.204;2022-12-07T17:28:10;2.30;99.90
49503;DHT22;35409;48.776;9.204;2022-12-07T17:30:35;2.40;99.90
49503;DHT22;35409;48.776;9.204;2022-12-07T17:33:02;2.40;99.90
49503;DHT22;35409;48.776;9.204;2022-12-07T17:35:27;2.40;99.90
49503;DHT22;35409;48.776;9.204;2022-12-07T17:37:53;2.50;99.90
49503;DHT22;35409;48.776;9.204;2022-12-07T17:40:20;2.50;99.90
49503;DHT22;35409;48.776;9.204;2022-12-07T17:42:46;2.50;99.90
49503;DHT22;35409;48.776;9.204;2022-12-07T17:45:15;2.60;99.90
49503;DHT22;35409;48.776;9.204;2022-12-07T17:47:41;2.60;99.90
49503;DHT22;35409;48.776;9.204;2022-12-07T17:50:07;2.70;99.90
49503;DHT22;35409;48.776;9.204;2022-12-07T17:52:36;2.70;99.90
49503;DHT22;35409;48.776;9.204;2022-12-07T17:55:20;2.70;99.90
49503;DHT22;35409;48.776;9.204;2022-12-07T17:57:46;2.70;99.90
49503;DHT22;35409;48.776;9.204;2022-12-07T18:00:12;2.80;99.90
49503;DHT22;35409;48.776;9.204;2022-12-07T18:02:38;2.80;99.90
49503;DHT22;35409;48.776;9.204;2022-12-07T18:05:04;2.80;99.90
49503;DHT22;35409;48.776;9.204;2022-12-07T18:07:30;2.80;99.90
49503;DHT22;35409;48.776;9.204;2022-12-07T18:09:55;2.80;99.90
49503;DHT22;35409;48.776;9.204;2022-12-07T18:12:22;2.80;99.90
49503;DHT22;35409;48.776;9.204;2022-12-07T18:14:47;2.80;99.90